Main page
METAR-TAF:

METAR-TAF

Airports :

Morón Air Base

Morón de la Frontera, Spain

latitude: 37-09N, longitude: 005-37W, elevation: 87 m

Current weather observation

The report was made 54 minutes ago, at 00:00 UTC
Wind 4 kt from the South
Temperature 8°C
Humidity 87%
Pressure 1023 hPa
Visibility 10 km or more
no clouds below 1500 m and no cumulonimbus

METAR: LEMO 260000Z 18004KT CAVOK 08/06 Q1023 NOSIG

Time: 02:54 (00:54 UTC)

Forecast

The report was made 1 hour and 54 minutes ago, at 23:00 UTC
Forecast valid from 26 at 00 UTC to 26 at 09 UTC
Wind 5 kt from the North/Northwest
Visibility 10 km or more
no clouds below 1500 m and no cumulonimbus
Probability 30% :
Temporary
from 26 at 02 UTC to 26 at 07 UTC
Visibility: 4000 m
mist

TAF: LEMO 252300Z 2600/2609 34005KT CAVOK PROB30 TEMPO 2602/2607 4000 BR

Weather observations and forecasts of more than 4000 airports (METAR and TAF reports).

The available stations are represented by yellow and red dots on the map.

Hover mouse over dot to see the name of the station.

Then click to see weather observations and forecasts.

To change the map : click on the green buttons with a black cross to zoom in, on the green button with a dash to zoom out, or on the green arrows for adjacent maps.


METAR-TAF: